Time;durP1;ratioP1;P1;durP2;ratioP2;P2;SDS_P1;SDS_P2;PMS_P1;PMS_P2;Temp;Humidity;BMP_temperature;BMP_pressure;BME280_temperature;BME280_humidity;BME280_pressure;Samples;Min_cycle;Max_cycle;Signal;HPM_P1;HPM_P2
2022/10/10 00:00:03;;;;;;;7.60;4.35;;;8.60;99.90;;;;;;5154041;27;20047;-81
2022/10/10 00:02:29;;;;;;;9.18;4.72;;;8.50;99.90;;;;;;5154276;27;20051;-81
2022/10/10 00:04:55;;;;;;;8.35;4.30;;;8.50;99.90;;;;;;5135123;27;20063;-81
2022/10/10 00:07:21;;;;;;;11.95;4.40;;;8.50;99.90;;;;;;5135361;27;20521;-81
2022/10/10 00:09:47;;;;;;;8.18;4.00;;;8.50;99.90;;;;;;5135122;27;20051;-81
2022/10/10 00:12:13;;;;;;;9.38;4.20;;;8.40;99.90;;;;;;5152154;27;20054;-81
2022/10/10 00:14:39;;;;;;;8.77;4.13;;;8.40;99.90;;;;;;5118159;27;20042;-80
2022/10/10 00:17:05;;;;;;;11.77;4.15;;;8.40;99.90;;;;;;5153773;27;20405;-81
2022/10/10 00:19:31;;;;;;;12.70;4.60;;;8.40;99.90;;;;;;5117745;27;20050;-81
2022/10/10 00:21:57;;;;;;;9.55;4.20;;;8.40;99.90;;;;;;5135125;27;20062;-81
2022/10/10 00:24:23;;;;;;;9.57;4.10;;;8.40;99.90;;;;;;5135126;27;20453;-80
2022/10/10 00:26:51;;;;;;;7.78;4.10;;;8.40;99.90;;;;;;5135018;27;20375;-80
2022/10/10 00:29:17;;;;;;;19.50;6.38;;;8.40;99.90;;;;;;5134496;27;20133;-81
2022/10/10 00:31:43;;;;;;;7.75;3.83;;;8.40;99.90;;;;;;5153991;27;20137;-80
2022/10/10 00:34:09;;;;;;;11.15;4.55;;;8.30;99.90;;;;;;5134868;27;20047;-81
2022/10/10 00:36:35;;;;;;;8.35;4.35;;;8.30;99.90;;;;;;5153108;27;20078;-80
2022/10/10 00:39:01;;;;;;;8.55;4.70;;;8.30;99.90;;;;;;5135238;27;20558;-80
2022/10/10 00:41:28;;;;;;;6.65;4.05;;;8.30;99.90;;;;;;5134555;27;20562;-81
2022/10/10 00:44:06;;;;;;;7.93;4.20;;;8.20;99.90;;;;;;5118347;27;20051;-82
2022/10/10 00:46:32;;;;;;;9.90;5.07;;;8.20;99.90;;;;;;5153922;27;20089;-81
2022/10/10 00:48:58;;;;;;;10.13;4.80;;;8.20;99.90;;;;;;5135262;27;20140;-81
2022/10/10 00:51:24;;;;;;;8.82;4.80;;;8.20;99.90;;;;;;5143503;27;20057;-81
2022/10/10 00:53:57;;;;;;;8.93;4.18;;;8.20;99.90;;;;;;5153170;27;20043;-80
2022/10/10 00:56:28;;;;;;;10.23;5.10;;;8.10;99.90;;;;;;5152880;27;20273;-80
2022/10/10 00:58:56;;;;;;;9.40;5.25;;;8.10;99.90;;;;;;5134116;27;20103;-80
2022/10/10 01:01:22;;;;;;;9.50;4.55;;;8.10;99.90;;;;;;5133817;27;20046;-80
2022/10/10 01:03:48;;;;;;;11.70;5.05;;;8.10;99.90;;;;;;5152808;27;20054;-81
2022/10/10 01:06:14;;;;;;;6.63;4.25;;;8.10;99.90;;;;;;5134173;27;20058;-80
2022/10/10 01:08:41;;;;;;;10.25;4.63;;;8.10;99.90;;;;;;5134630;27;20054;-80
2022/10/10 01:11:19;;;;;;;12.25;5.72;;;8.10;99.90;;;;;;5157084;27;20114;-80
2022/10/10 01:14:15;;;;;;;9.18;5.05;;;8.10;99.90;;;;;;5152642;27;20046;-80
2022/10/10 01:17:10;;;;;;;12.95;6.00;;;8.10;99.90;;;;;;5133899;27;20047;-80
2022/10/10 01:19:57;;;;;;;11.48;5.63;;;8.10;99.90;;;;;;5091596;27;20501;-80
2022/10/10 01:22:38;;;;;;;9.65;5.18;;;8.00;99.90;;;;;;5134084;27;20066;-80
2022/10/10 01:25:36;;;;;;;8.75;5.07;;;8.00;99.90;;;;;;5151132;27;20046;-80
2022/10/10 01:28:28;;;;;;;9.18;4.82;;;8.00;99.90;;;;;;5151832;27;20137;-81
2022/10/10 01:30:57;;;;;;;10.40;5.03;;;8.00;99.90;;;;;;5152736;27;20047;-80
2022/10/10 01:33:43;;;;;;;11.27;5.43;;;8.00;99.90;;;;;;5152428;27;20579;-80
2022/10/10 01:36:20;;;;;;;11.85;5.97;;;8.00;99.90;;;;;;5133592;27;20082;-80
2022/10/10 01:38:57;;;;;;;7.78;4.90;;;7.90;99.90;;;;;;5152313;27;20783;-80
2022/10/10 01:41:49;;;;;;;9.13;5.25;;;7.90;99.90;;;;;;5117485;27;20141;-80
2022/10/10 01:44:15;;;;;;;11.88;5.40;;;7.90;99.90;;;;;;5141568;27;20043;-80
2022/10/10 01:46:41;;;;;;;8.85;5.20;;;7.90;99.90;;;;;;5134034;27;20046;-80
2022/10/10 01:49:08;;;;;;;10.30;5.65;;;7.90;99.90;;;;;;5116759;27;20451;-80
2022/10/10 01:52:21;;;;;;;8.32;5.75;;;7.90;99.90;;;;;;5133769;27;20102;-80
2022/10/10 01:55:05;;;;;;;11.90;6.15;;;7.90;99.90;;;;;;5151884;27;20101;-80
2022/10/10 01:57:37;;;;;;;9.00;5.78;;;7.90;99.90;;;;;;5133889;27;20054;-80
2022/10/10 02:00:11;;;;;;;10.77;5.50;;;7.90;99.90;;;;;;5116345;27;20137;-80
2022/10/10 02:02:50;;;;;;;11.95;5.45;;;7.80;99.90;;;;;;5152527;27;20070;-80
2022/10/10 02:05:54;;;;;;;8.50;5.72;;;7.80;99.90;;;;;;5133979;27;20451;-79
2022/10/10 02:08:31;;;;;;;11.13;5.25;;;7.80;99.90;;;;;;5130293;27;20186;-79
2022/10/10 02:11:04;;;;;;;9.55;5.65;;;7.80;99.90;;;;;;5152290;27;20061;-80
2022/10/10 02:13:44;;;;;;;11.38;6.25;;;7.80;99.90;;;;;;5136507;27;20505;-80
2022/10/10 02:16:18;;;;;;;10.32;5.95;;;7.80;99.90;;;;;;5156392;27;20084;-80
2022/10/10 02:18:46;;;;;;;11.03;5.87;;;7.80;99.90;;;;;;5138074;27;20054;-80
2022/10/10 02:21:14;;;;;;;10.48;6.40;;;7.80;99.90;;;;;;5136713;27;20312;-80
2022/10/10 02:23:44;;;;;;;11.15;5.95;;;7.80;99.90;;;;;;5138533;27;20053;-81
2022/10/10 02:26:14;;;;;;;10.20;5.60;;;7.80;99.90;;;;;;5137820;27;20559;-80
2022/10/10 02:28:56;;;;;;;12.50;6.05;;;7.80;99.90;;;;;;5156032;27;20062;-80
2022/10/10 02:32:01;;;;;;;12.93;5.90;;;7.70;99.90;;;;;;5137013;27;20570;-80
2022/10/10 02:34:32;;;;;;;11.10;5.70;;;7.70;99.90;;;;;;5125685;27;20090;-80
2022/10/10 02:37:02;;;;;;;11.20;6.30;;;7.70;99.90;;;;;;5136804;27;20454;-80
2022/10/10 02:39:32;;;;;;;10.30;6.47;;;7.70;99.90;;;;;;5155363;27;20035;-80
2022/10/10 02:41:58;;;;;;;10.13;6.35;;;7.70;99.90;;;;;;5137044;27;20059;-81
2022/10/10 02:44:25;;;;;;;11.65;6.53;;;7.70;99.90;;;;;;5136697;27;20078;-80
2022/10/10 02:46:51;;;;;;;9.55;5.65;;;7.70;99.90;;;;;;5155774;27;20431;-80
2022/10/10 02:49:29;;;;;;;10.35;6.30;;;7.70;99.90;;;;;;5155399;27;20138;-80
2022/10/10 02:51:55;;;;;;;11.82;6.07;;;7.70;99.90;;;;;;5155686;27;20402;-80
2022/10/10 02:54:21;;;;;;;11.38;6.93;;;7.70;99.90;;;;;;5119434;27;20137;-80
2022/10/10 02:56:47;;;;;;;9.43;6.07;;;7.70;99.90;;;;;;5153837;27;20129;-81
2022/10/10 02:59:13;;;;;;;11.40;6.38;;;7.70;99.90;;;;;;5136546;27;20057;-80
2022/10/10 03:01:39;;;;;;;10.10;6.68;;;7.70;99.90;;;;;;5137128;27;20065;-81
2022/10/10 03:04:05;;;;;;;18.17;7.95;;;7.70;99.90;;;;;;5155062;27;20051;-81
2022/10/10 03:06:32;;;;;;;9.25;5.90;;;7.70;99.90;;;;;;5155208;27;20047;-81
2022/10/10 03:08:58;;;;;;;8.25;5.95;;;7.70;99.90;;;;;;5136395;27;20042;-81
2022/10/10 03:11:24;;;;;;;16.77;8.52;;;7.70;99.90;;;;;;5136459;27;20065;-82
2022/10/10 03:13:50;;;;;;;11.50;6.47;;;7.70;99.90;;;;;;5136201;27;20042;-81
2022/10/10 03:16:16;;;;;;;13.98;7.45;;;7.70;99.90;;;;;;5136138;27;20055;-81
2022/10/10 03:18:43;;;;;;;13.90;6.65;;;7.70;99.90;;;;;;5153522;27;20059;-80
2022/10/10 03:21:09;;;;;;;9.45;6.25;;;7.70;99.90;;;;;;5135913;27;20051;-81
2022/10/10 03:23:35;;;;;;;12.85;6.85;;;7.70;99.90;;;;;;5135511;27;20043;-80
2022/10/10 03:26:01;;;;;;;11.38;6.53;;;7.70;99.90;;;;;;5136335;27;20054;-81
2022/10/10 03:28:27;;;;;;;13.98;7.20;;;7.70;99.90;;;;;;5154435;27;20129;-81
2022/10/10 03:30:53;;;;;;;10.27;6.55;;;7.70;99.90;;;;;;5135726;27;20126;-79
2022/10/10 03:33:19;;;;;;;14.40;6.95;;;7.70;99.90;;;;;;5135748;27;20055;-82
2022/10/10 03:35:45;;;;;;;11.93;6.95;;;7.70;99.90;;;;;;5154457;27;20054;-79
2022/10/10 03:38:12;;;;;;;15.48;7.78;;;7.70;99.90;;;;;;5154284;27;20057;-80
2022/10/10 03:40:42;;;;;;;10.43;7.10;;;7.70;99.90;;;;;;5155062;27;20457;-80
2022/10/10 03:43:10;;;;;;;13.13;8.70;;;7.70;99.90;;;;;;5136402;27;20043;-79
2022/10/10 03:45:36;;;;;;;11.18;6.28;;;7.70;99.90;;;;;;5153720;27;20592;-80
2022/10/10 03:48:02;;;;;;;10.02;6.47;;;7.60;99.90;;;;;;5135956;27;20553;-80
2022/10/10 03:50:28;;;;;;;12.55;7.22;;;7.60;99.90;;;;;;5118353;27;20043;-80
2022/10/10 03:52:54;;;;;;;13.63;7.43;;;7.60;99.90;;;;;;5118392;27;20051;-79
2022/10/10 03:55:20;;;;;;;13.27;7.05;;;7.60;99.90;;;;;;5154594;27;20046;-80
2022/10/10 03:57:46;;;;;;;9.70;6.70;;;7.50;99.90;;;;;;5135027;27;20081;-79
2022/10/10 04:00:13;;;;;;;14.70;7.63;;;7.50;99.90;;;;;;5154086;27;20201;-81
2022/10/10 04:02:39;;;;;;;10.95;7.78;;;7.50;99.90;;;;;;5135723;27;20057;-80
2022/10/10 04:05:05;;;;;;;12.02;6.82;;;7.50;99.90;;;;;;5135458;27;20055;-80
2022/10/10 04:07:31;;;;;;;12.15;7.05;;;7.50;99.90;;;;;;5153788;27;20106;-81
2022/10/10 04:09:57;;;;;;;11.35;7.68;;;7.50;99.90;;;;;;5153996;27;20059;-80
2022/10/10 04:12:23;;;;;;;14.30;7.60;;;7.50;99.90;;;;;;5154250;27;20095;-80
2022/10/10 04:14:49;;;;;;;12.93;7.05;;;7.50;99.90;;;;;;5153455;27;20047;-80
2022/10/10 04:17:14;;;;;;;9.98;6.80;;;7.40;99.90;;;;;;5135032;27;20107;-80
2022/10/10 04:19:40;;;;;;;10.65;7.05;;;7.40;99.90;;;;;;5134861;27;20046;-80
2022/10/10 04:22:06;;;;;;;14.57;7.10;;;7.40;99.90;;;;;;5134841;27;20047;-80
2022/10/10 04:24:32;;;;;;;11.38;7.53;;;7.40;99.90;;;;;;5153454;27;20073;-80
2022/10/10 04:26:58;;;;;;;10.90;6.95;;;7.40;99.90;;;;;;5134868;27;20051;-80
2022/10/10 04:29:24;;;;;;;13.45;8.05;;;7.40;99.90;;;;;;5134763;27;20051;-80
2022/10/10 04:31:50;;;;;;;16.58;8.05;;;7.40;99.90;;;;;;5153693;27;20397;-80
2022/10/10 04:34:16;;;;;;;11.32;7.22;;;7.40;99.90;;;;;;5134741;27;20142;-80
2022/10/10 04:36:42;;;;;;;12.02;7.07;;;7.40;99.90;;;;;;5133936;27;20089;-80
2022/10/10 04:39:08;;;;;;;12.70;7.80;;;7.40;99.90;;;;;;5153632;27;20078;-80
2022/10/10 04:41:34;;;;;;;10.30;7.63;;;7.30;99.90;;;;;;5153254;27;20417;-79
2022/10/10 04:44:00;;;;;;;14.25;7.57;;;7.40;99.90;;;;;;5134542;27;20042;-79
2022/10/10 04:46:26;;;;;;;14.00;7.20;;;7.40;99.90;;;;;;5152960;27;20129;-79
2022/10/10 04:48:52;;;;;;;12.13;7.75;;;7.30;99.90;;;;;;5134287;27;20133;-79
2022/10/10 04:51:18;;;;;;;13.98;7.60;;;7.30;99.90;;;;;;5134496;27;20053;-80
2022/10/10 04:53:44;;;;;;;12.73;8.20;;;7.30;99.90;;;;;;5117317;27;20066;-80
2022/10/10 04:56:10;;;;;;;14.80;7.90;;;7.30;99.90;;;;;;5134191;27;20058;-80
2022/10/10 04:58:36;;;;;;;13.70;8.15;;;7.30;99.90;;;;;;5153098;27;20133;-80
2022/10/10 05:01:02;;;;;;;14.98;7.63;;;7.30;99.90;;;;;;5133883;27;20133;-80
2022/10/10 05:03:28;;;;;;;13.52;7.82;;;7.30;99.90;;;;;;5134545;27;20121;-80
2022/10/10 05:05:54;;;;;;;14.32;7.80;;;7.30;99.90;;;;;;5134043;27;20053;-80
2022/10/10 05:08:20;;;;;;;16.23;8.38;;;7.30;99.90;;;;;;5152974;27;20490;-80
2022/10/10 05:10:46;;;;;;;13.73;8.18;;;7.30;99.90;;;;;;5134170;27;20061;-80
2022/10/10 05:13:14;;;;;;;13.95;8.25;;;7.30;99.90;;;;;;5134655;27;20115;-79
2022/10/10 05:15:41;;;;;;;13.23;7.72;;;7.30;99.90;;;;;;5134167;27;20051;-80
2022/10/10 05:18:07;;;;;;;12.95;7.57;;;7.30;99.90;;;;;;5134697;27;20489;-80
2022/10/10 05:20:35;;;;;;;13.80;8.13;;;7.20;99.90;;;;;;5134124;27;20066;-80
2022/10/10 05:23:02;;;;;;;12.60;7.50;;;7.30;99.90;;;;;;5134297;27;20073;-79
2022/10/10 05:25:28;;;;;;;14.18;8.07;;;7.30;99.90;;;;;;5134118;27;20477;-79
2022/10/10 05:27:54;;;;;;;15.82;7.70;;;7.30;99.90;;;;;;5134220;27;20047;-79
2022/10/10 05:30:20;;;;;;;11.43;7.13;;;7.30;99.90;;;;;;5133585;27;20057;-80
2022/10/10 05:32:45;;;;;;;12.75;7.95;;;7.30;99.90;;;;;;5133625;27;20141;-79
2022/10/10 05:35:11;;;;;;;14.43;8.32;;;7.30;99.90;;;;;;5116685;27;20051;-79
2022/10/10 05:37:37;;;;;;;12.07;7.55;;;7.40;99.90;;;;;;5133567;27;20509;-79
2022/10/10 05:40:03;;;;;;;14.52;9.40;;;7.40;99.90;;;;;;5133839;27;20167;-80
2022/10/10 05:42:29;;;;;;;12.90;7.43;;;7.40;99.90;;;;;;5151364;27;20054;-80
2022/10/10 05:44:55;;;;;;;12.75;8.52;;;7.50;99.90;;;;;;5133865;27;20425;-80
2022/10/10 05:47:22;;;;;;;14.13;7.93;;;7.50;99.90;;;;;;5134151;27;20051;-80
2022/10/10 05:49:48;;;;;;;16.20;7.95;;;7.50;99.90;;;;;;5156831;27;20053;-80
2022/10/10 05:52:14;;;;;;;14.13;8.10;;;7.50;99.90;;;;;;5137819;27;20426;-80
2022/10/10 05:54:40;;;;;;;13.18;7.93;;;7.50;99.90;;;;;;5156639;27;20519;-80
2022/10/10 05:57:06;;;;;;;15.05;8.05;;;7.50;99.90;;;;;;5137988;27;20096;-80
2022/10/10 05:59:32;;;;;;;12.32;8.35;;;7.50;99.90;;;;;;5120484;27;20382;-80
2022/10/10 06:01:57;;;;;;;15.80;8.82;;;7.50;99.90;;;;;;5156634;27;20055;-80
2022/10/10 06:04:23;;;;;;;17.50;8.82;;;7.60;99.90;;;;;;5157337;27;20126;-79
2022/10/10 06:06:49;;;;;;;12.98;7.38;;;7.60;99.90;;;;;;5138923;27;20055;-80
2022/10/10 06:09:16;;;;;;;16.00;8.30;;;7.60;99.90;;;;;;5157641;27;20054;-80
2022/10/10 06:11:42;;;;;;;12.00;7.70;;;7.60;99.90;;;;;;5138231;27;20047;-79
2022/10/10 06:14:09;;;;;;;14.77;8.43;;;7.70;99.90;;;;;;5138004;27;20054;-81
2022/10/10 06:16:38;;;;;;;15.40;8.52;;;7.70;99.90;;;;;;5156046;27;20052;-80
2022/10/10 06:19:04;;;;;;;18.48;9.10;;;7.70;99.90;;;;;;5157586;27;20137;-80
2022/10/10 06:21:30;;;;;;;14.55;7.78;;;7.70;99.90;;;;;;5138543;27;20060;-80
2022/10/10 06:23:56;;;;;;;14.10;8.48;;;7.80;99.90;;;;;;5138005;27;20054;-80
2022/10/10 06:26:22;;;;;;;14.48;8.00;;;7.80;99.90;;;;;;5137917;27;20095;-81
2022/10/10 06:28:49;;;;;;;14.07;8.70;;;7.80;99.90;;;;;;5156462;27;20051;-81
2022/10/10 06:31:15;;;;;;;15.85;7.35;;;7.80;99.90;;;;;;5155963;27;20126;-80
2022/10/10 06:33:44;;;;;;;15.07;8.13;;;7.90;99.90;;;;;;5136803;27;20142;-79
2022/10/10 06:36:11;;;;;;;11.85;7.85;;;7.90;99.90;;;;;;5155481;27;20486;-81
2022/10/10 06:38:39;;;;;;;17.73;8.32;;;8.00;99.90;;;;;;5155488;27;20055;-81
2022/10/10 06:41:06;;;;;;;12.57;7.78;;;8.00;99.90;;;;;;5155451;27;20090;-81
2022/10/10 06:43:32;;;;;;;15.98;8.20;;;8.10;99.90;;;;;;5154280;27;20133;-80
2022/10/10 06:45:59;;;;;;;12.07;8.32;;;8.20;99.90;;;;;;5155632;27;20043;-80
2022/10/10 06:48:25;;;;;;;13.60;8.20;;;8.20;99.90;;;;;;5137288;27;20082;-81
2022/10/10 06:51:01;;;;;;;13.70;7.80;;;8.30;99.90;;;;;;5155492;27;20051;-80
2022/10/10 06:53:28;;;;;;;14.60;8.10;;;8.30;99.90;;;;;;5155418;27;20111;-80
2022/10/10 06:55:54;;;;;;;14.57;7.95;;;8.40;99.90;;;;;;5155337;27;20054;-82
2022/10/10 06:58:22;;;;;;;12.73;7.90;;;8.40;99.90;;;;;;5154921;27;20602;-82
2022/10/10 07:00:52;;;;;;;14.80;7.20;;;8.50;99.90;;;;;;5136851;27;20050;-79
2022/10/10 07:03:20;;;;;;;10.88;7.45;;;8.60;99.90;;;;;;5155558;27;20121;-81
2022/10/10 07:05:54;;;;;;;12.38;7.75;;;8.70;99.90;;;;;;5136167;27;20141;-79
2022/10/10 07:08:22;;;;;;;16.60;8.13;;;8.80;99.90;;;;;;5155440;27;20178;-80
2022/10/10 07:10:48;;;;;;;12.35;7.70;;;8.80;99.90;;;;;;5156028;27;20059;-80
2022/10/10 07:13:14;;;;;;;13.13;7.60;;;8.90;99.90;;;;;;5155235;27;20050;-80
2022/10/10 07:15:41;;;;;;;14.40;8.18;;;9.00;99.90;;;;;;5119209;27;20419;-79
2022/10/10 07:18:07;;;;;;;13.75;8.27;;;9.00;99.90;;;;;;5136185;27;20054;-79
2022/10/10 07:20:34;;;;;;;10.13;7.40;;;9.10;99.90;;;;;;5136134;27;20062;-81
2022/10/10 07:23:01;;;;;;;12.30;7.70;;;9.20;99.90;;;;;;5154606;27;20047;-80
2022/10/10 07:25:27;;;;;;;13.60;7.97;;;9.20;99.90;;;;;;5154960;27;20107;-80
2022/10/10 07:27:53;;;;;;;19.05;7.97;;;9.10;99.90;;;;;;5136356;27;20039;-79
2022/10/10 07:30:19;;;;;;;15.23;8.00;;;9.20;99.90;;;;;;5154550;27;20047;-79
2022/10/10 07:32:45;;;;;;;11.57;7.55;;;9.30;99.90;;;;;;5154676;27;20050;-79
2022/10/10 07:35:11;;;;;;;12.00;7.85;;;9.30;99.90;;;;;;5136129;27;20134;-79
2022/10/10 07:37:38;;;;;;;17.25;8.57;;;9.40;99.90;;;;;;5135376;27;20135;-80
2022/10/10 07:40:05;;;;;;;15.10;8.27;;;9.50;99.90;;;;;;5136128;27;20039;-80
2022/10/10 07:42:31;;;;;;;11.93;7.20;;;9.70;99.90;;;;;;5154577;27;20501;-79
2022/10/10 07:44:57;;;;;;;15.93;8.68;;;9.80;99.90;;;;;;5155035;27;20134;-81
2022/10/10 07:47:23;;;;;;;14.13;7.07;;;9.90;99.90;;;;;;5154657;27;20050;-80
2022/10/10 07:49:49;;;;;;;16.48;7.50;;;10.10;99.90;;;;;;5135883;27;20509;-81
2022/10/10 07:52:15;;;;;;;15.30;7.25;;;10.20;99.90;;;;;;5135548;27;20401;-82
2022/10/10 07:54:41;;;;;;;17.50;7.53;;;10.30;99.90;;;;;;5135975;27;20046;-80
2022/10/10 07:57:07;;;;;;;14.05;8.57;;;10.40;99.90;;;;;;5154179;27;20047;-80
2022/10/10 07:59:33;;;;;;;12.00;7.47;;;10.60;99.90;;;;;;5154100;27;20077;-80
2022/10/10 08:01:59;;;;;;;13.95;8.10;;;10.70;99.90;;;;;;5135528;27;20561;-80
2022/10/10 08:04:25;;;;;;;14.15;7.43;;;10.80;99.90;;;;;;5135700;27;20089;-80
2022/10/10 08:06:50;;;;;;;13.57;7.78;;;11.00;99.90;;;;;;5154568;27;20142;-79
2022/10/10 08:09:16;;;;;;;11.52;7.30;;;11.10;99.90;;;;;;5154235;27;20130;-81
2022/10/10 08:11:42;;;;;;;17.45;7.90;;;11.30;99.90;;;;;;5117619;27;20099;-80
2022/10/10 08:14:08;;;;;;;11.43;7.28;;;11.30;99.90;;;;;;5135420;27;20074;-80
2022/10/10 08:16:34;;;;;;;15.65;8.13;;;11.40;99.90;;;;;;5135212;27;20086;-80
2022/10/10 08:19:00;;;;;;;13.75;8.32;;;11.40;99.90;;;;;;5153963;27;20077;-81
2022/10/10 08:21:26;;;;;;;13.25;7.32;;;11.50;99.90;;;;;;5134682;27;20046;-80
2022/10/10 08:23:52;;;;;;;12.00;7.30;;;11.50;99.90;;;;;;5134835;27;20045;-80
2022/10/10 08:26:18;;;;;;;11.15;7.30;;;11.60;99.90;;;;;;5153320;27;20094;-80
2022/10/10 08:28:46;;;;;;;13.07;8.05;;;11.70;99.90;;;;;;5153331;27;20058;-80
2022/10/10 08:31:14;;;;;;;14.15;8.18;;;11.80;99.90;;;;;;5153730;27;20389;-80
2022/10/10 08:33:42;;;;;;;14.05;7.72;;;11.80;99.90;;;;;;5117608;27;20039;-79
2022/10/10 08:36:10;;;;;;;17.98;8.18;;;11.90;99.90;;;;;;5134815;27;20097;-80
2022/10/10 08:38:36;;;;;;;14.70;7.82;;;11.90;99.90;;;;;;5152902;27;20142;-80
2022/10/10 08:41:10;;;;;;;14.43;7.65;;;11.90;99.90;;;;;;5153156;27;20076;-80
2022/10/10 08:43:53;;;;;;;12.88;7.50;;;12.00;99.90;;;;;;5134793;27;20058;-80
2022/10/10 08:46:58;;;;;;;15.73;8.32;;;12.00;99.90;;;;;;5117594;27;20520;-80
2022/10/10 08:49:33;;;;;;;15.48;7.72;;;12.10;99.90;;;;;;5134665;27;20050;-80
2022/10/10 08:52:49;;;;;;;17.17;7.28;;;12.10;99.90;;;;;;5117477;27;20444;-79
2022/10/10 08:55:23;;;;;;;12.90;6.90;;;12.20;99.90;;;;;;5059139;27;20051;-80
2022/10/10 08:57:55;;;;;;;11.88;7.90;;;12.20;99.90;;;;;;5134472;27;20048;-79
2022/10/10 09:00:24;;;;;;;12.00;7.40;;;12.30;99.90;;;;;;5116962;27;20058;-80
2022/10/10 09:02:57;;;;;;;14.85;8.20;;;12.40;99.90;;;;;;5152677;27;20502;-79
2022/10/10 09:05:52;;;;;;;12.63;8.25;;;12.50;99.90;;;;;;5134002;27;20042;-80
2022/10/10 09:08:40;;;;;;;16.47;7.57;;;12.60;99.90;;;;;;5106718;27;20047;-80
2022/10/10 09:11:38;;;;;;;15.10;8.20;;;12.70;99.90;;;;;;5152789;27;20341;-79
2022/10/10 09:14:18;;;;;;;13.75;8.20;;;12.90;99.90;;;;;;5133987;27;20132;-80
2022/10/10 09:16:50;;;;;;;11.48;7.18;;;12.90;99.90;;;;;;5134007;27;20557;-80
2022/10/10 09:19:23;;;;;;;13.48;7.30;;;13.10;99.90;;;;;;5152560;27;20090;-80
2022/10/10 09:21:58;;;;;;;11.30;7.85;;;13.20;99.90;;;;;;5152381;27;20106;-80
2022/10/10 09:24:53;;;;;;;;;;;13.30;99.90;;;;;;5134835;27;20134;-80
2022/10/10 09:27:27;;;;;;;14.25;8.75;;;13.20;99.90;;;;;;5134704;27;19965;-81
2022/10/10 09:30:02;;;;;;;15.60;8.18;;;13.30;99.90;;;;;;5152781;27;20045;-80
2022/10/10 09:32:27;;;;;;;13.32;8.43;;;13.30;99.90;;;;;;5152734;27;20050;-80
2022/10/10 09:35:15;;;;;;;13.43;7.38;;;13.30;99.90;;;;;;5133686;27;20047;-81
2022/10/10 09:37:42;;;;;;;12.70;7.97;;;13.30;99.90;;;;;;5152145;27;20053;-80
2022/10/10 09:40:24;;;;;;;16.10;8.73;;;13.50;99.90;;;;;;5134299;27;20126;-80
2022/10/10 09:42:50;;;;;;;16.17;8.25;;;13.70;99.90;;;;;;5152737;27;20082;-80
2022/10/10 09:45:18;;;;;;;15.07;8.38;;;13.80;99.90;;;;;;5134075;27;20097;-80
2022/10/10 09:47:45;;;;;;;12.70;8.05;;;13.80;99.90;;;;;;5152738;27;20053;-79
2022/10/10 09:50:15;;;;;;;12.43;7.35;;;13.80;99.90;;;;;;5134029;27;20046;-80
2022/10/10 09:52:43;;;;;;;14.02;8.13;;;13.90;99.90;;;;;;5133954;27;20557;-80
2022/10/10 09:55:21;;;;;;;13.80;7.95;;;14.10;99.90;;;;;;5152252;27;20059;-80
2022/10/10 09:57:49;;;;;;;20.15;7.82;;;14.30;99.90;;;;;;5133479;27;20054;-81
2022/10/10 10:00:17;;;;;;;17.25;8.25;;;14.50;99.90;;;;;;5152395;27;20047;-80
2022/10/10 10:02:47;;;;;;;16.83;8.52;;;14.50;99.90;;;;;;5133695;27;20050;-80
2022/10/10 10:05:25;;;;;;;13.00;7.72;;;14.70;99.90;;;;;;5133252;27;20045;-80
2022/10/10 10:07:51;;;;;;;16.88;8.02;;;14.90;99.90;;;;;;5152052;27;20138;-80
2022/10/10 10:10:20;;;;;;;14.25;7.45;;;15.00;99.90;;;;;;5133586;27;20406;-80
2022/10/10 10:12:46;;;;;;;18.42;8.40;;;15.30;99.90;;;;;;5152284;27;20375;-80
2022/10/10 10:15:22;;;;;;;11.02;6.93;;;15.40;99.90;;;;;;5133171;27;20107;-80
2022/10/10 10:18:12;;;;;;;13.85;7.70;;;15.50;99.90;;;;;;5152705;27;20100;-80
2022/10/10 10:20:40;;;;;;;14.00;7.22;;;15.80;99.90;;;;;;5151299;27;20186;-80
2022/10/10 10:23:33;;;;;;;14.60;9.13;;;15.70;99.90;;;;;;5152395;27;20129;-80
2022/10/10 10:26:05;;;;;;;17.05;8.43;;;15.70;99.90;;;;;;5112086;27;20057;-79
2022/10/10 10:28:39;;;;;;;15.95;7.60;;;15.60;99.90;;;;;;5133799;27;20096;-81
2022/10/10 10:31:12;;;;;;;13.95;8.00;;;15.40;99.90;;;;;;5151815;27;20394;-79
2022/10/10 10:33:56;;;;;;;13.15;7.82;;;15.40;99.90;;;;;;5152980;27;20080;-80
2022/10/10 10:36:58;;;;;;;11.38;8.00;;;15.30;99.90;;;;;;5155831;27;20057;-80
2022/10/10 10:40:07;;;;;;;16.27;7.65;;;15.30;99.90;;;;;;5103392;27;20149;-80
2022/10/10 10:42:39;;;;;;;12.65;7.60;;;15.30;99.90;;;;;;5137061;27;20058;-79
2022/10/10 10:45:33;;;;;;;11.82;7.20;;;15.30;99.90;;;;;;5136750;27;20046;-80
2022/10/10 10:48:20;;;;;;;19.95;8.38;;;15.30;99.90;;;;;;5155602;27;20058;-81
2022/10/10 10:51:03;;;;;;;16.90;7.45;;;15.30;99.90;;;;;;5155321;27;20039;-79
2022/10/10 10:54:09;;;;;;;14.27;8.00;;;15.30;99.90;;;;;;5137203;27;20054;-80
2022/10/10 10:57:06;;;;;;;14.98;8.27;;;15.20;99.90;;;;;;5155066;27;20047;-80
2022/10/10 11:00:01;;;;;;;17.38;7.78;;;15.10;99.90;;;;;;5115454;27;20043;-80
2022/10/10 11:02:37;;;;;;;;;;;15.00;99.90;;;;;;5137071;27;20061;-81
2022/10/10 11:05:22;;;;;;;15.90;8.77;;;15.00;99.90;;;;;;5155377;27;19968;-80
2022/10/10 11:08:09;;;;;;;16.02;9.07;;;15.00;99.90;;;;;;5154961;27;20089;-79
2022/10/10 11:10:50;;;;;;;13.57;8.13;;;14.90;99.90;;;;;;5155251;27;20046;-79
2022/10/10 11:13:40;;;;;;;15.75;7.32;;;14.90;99.90;;;;;;5154851;27;20086;-80
2022/10/10 11:16:13;;;;;;;13.50;7.97;;;15.00;99.90;;;;;;5136606;27;20107;-80
2022/10/10 11:19:03;;;;;;;14.93;8.27;;;15.00;99.90;;;;;;5155138;27;20047;-79
2022/10/10 11:21:33;;;;;;;20.48;9.13;;;14.90;99.90;;;;;;5136014;27;20513;-80
2022/10/10 11:24:12;;;;;;;15.32;9.13;;;14.90;99.90;;;;;;5136605;27;20078;-80
2022/10/10 11:26:44;;;;;;;20.00;8.73;;;14.80;99.90;;;;;;5137323;27;20054;-80
2022/10/10 11:29:12;;;;;;;20.27;9.00;;;14.80;99.90;;;;;;5155498;27;20069;-80
2022/10/10 11:31:46;;;;;;;22.83;8.48;;;14.80;99.90;;;;;;5155112;27;20051;-80
2022/10/10 11:34:21;;;;;;;19.45;8.63;;;14.70;99.90;;;;;;5135949;27;20078;-80
2022/10/10 11:36:50;;;;;;;15.80;8.77;;;14.70;99.90;;;;;;5135872;27;20114;-80
2022/10/10 11:39:40;;;;;;;17.38;8.88;;;14.70;99.90;;;;;;5135768;27;20054;-80
2022/10/10 11:42:17;;;;;;;20.65;9.40;;;14.80;99.90;;;;;;5118713;27;20054;-80
2022/10/10 11:44:53;;;;;;;20.70;10.63;;;14.80;99.90;;;;;;5154488;27;20382;-79
2022/10/10 11:47:27;;;;;;;23.23;10.63;;;15.00;99.90;;;;;;5154757;27;20114;-80
2022/10/10 11:50:17;;;;;;;19.23;7.83;;;15.20;99.90;;;;;;5154184;27;20053;-80
2022/10/10 11:53:01;;;;;;;21.50;8.98;;;15.20;99.90;;;;;;5135872;27;20280;-80
2022/10/10 11:55:42;;;;;;;14.90;8.80;;;15.30;99.90;;;;;;5135762;27;20103;-79
2022/10/10 11:58:08;;;;;;;17.52;8.63;;;15.50;99.90;;;;;;5154235;27;20051;-80
2022/10/10 12:00:42;;;;;;;16.77;8.65;;;15.60;99.90;;;;;;5136175;27;20485;-80
2022/10/10 12:03:08;;;;;;;20.60;9.52;;;15.60;99.90;;;;;;5136145;27;20085;-80
2022/10/10 12:05:39;;;;;;;20.67;10.80;;;15.50;99.90;;;;;;5136176;27;20060;-79
2022/10/10 12:08:27;;;;;;;23.77;9.52;;;15.40;99.90;;;;;;5135881;27;20054;-79
2022/10/10 12:11:07;;;;;;;19.30;8.82;;;15.30;99.90;;;;;;5154377;27;20078;-79
2022/10/10 12:13:41;;;;;;;18.25;8.38;;;15.20;99.90;;;;;;5135297;27;20043;-80
2022/10/10 12:16:16;;;;;;;16.48;8.77;;;15.10;99.90;;;;;;5135749;27;20053;-80
2022/10/10 12:19:00;;;;;;;16.17;8.27;;;15.00;99.90;;;;;;5136038;27;20187;-79
2022/10/10 12:21:28;;;;;;;14.98;8.60;;;14.90;99.90;;;;;;5153585;27;20050;-79
2022/10/10 12:24:04;;;;;;;17.20;9.48;;;14.90;99.90;;;;;;5153952;27;20136;-80
2022/10/10 12:26:51;;;;;;;16.92;8.65;;;14.80;99.90;;;;;;5134950;27;20138;-79
2022/10/10 12:29:39;;;;;;;21.33;9.25;;;14.70;99.90;;;;;;5153512;27;20055;-79
2022/10/10 12:32:16;;;;;;;15.65;9.35;;;14.60;99.90;;;;;;5153503;27;20457;-79
2022/10/10 12:34:48;;;;;;;17.08;9.82;;;14.50;99.90;;;;;;5153567;27;20099;-79
2022/10/10 12:37:30;;;;;;;17.45;10.20;;;14.50;99.90;;;;;;5134397;27;20058;-80
2022/10/10 12:40:05;;;;;;;18.42;10.18;;;14.40;99.90;;;;;;5153369;27;20626;-79
2022/10/10 12:42:32;;;;;;;23.35;9.52;;;14.40;99.90;;;;;;5135216;27;20054;-79
2022/10/10 12:45:00;;;;;;;18.00;9.50;;;14.30;99.90;;;;;;5118048;27;20078;-80
2022/10/10 12:47:31;;;;;;;15.20;5.47;;;14.30;99.90;;;;;;5134642;27;20098;-80
2022/10/10 12:50:01;;;;;;;9.57;2.20;;;14.10;99.90;;;;;;5134744;27;20047;-79
2022/10/10 12:52:48;;;;;;;8.00;2.22;;;14.00;99.90;;;;;;5134888;27;20050;-80
2022/10/10 12:55:25;;;;;;;11.57;1.90;;;13.90;99.90;;;;;;5152943;27;20111;-79
2022/10/10 12:57:57;;;;;;;9.68;1.55;;;13.80;99.90;;;;;;5152670;27;20054;-79
2022/10/10 13:00:26;;;;;;;13.57;1.65;;;13.70;99.90;;;;;;5152816;27;20042;-79
2022/10/10 13:02:57;;;;;;;15.68;2.47;;;13.70;99.90;;;;;;5153027;27;20059;-80
2022/10/10 13:05:30;;;;;;;21.70;2.88;;;13.60;99.90;;;;;;5153180;27;20046;-79
2022/10/10 13:08:04;;;;;;;14.95;2.85;;;13.50;99.90;;;;;;5152893;27;20046;-80